Lansing, MI (48917)

4:32 PM EDT on May 28, 2015 (GMT -0400)
(MAC) Lansing | | Change Station
CLOSE
Current Station
Personal Weather Station
Location: Lansing, MI
Elevation: 885 ft
Nearby Weather Stations

Elev 885 ft 42.74 °N, 84.66 °W | Updated 1 minute ago

Clear
Clear
80.6 °F
Feels Like 81 °F
N
1.0
Wind Variable Wind from WSW
Gusts 1.0 mph

Today
High -- | Low -- °F
--% Chance of Precip.
Yesterday
High -- | Low -- °F
Precip. -- in
6:05 AM 9:06 PM
Waxing Gibbous, 78% visible
Pressure 30.20 in
Visibility 10.0 miles
Clouds Few 5500 ft
Heat Index 81 °F
Dew Point 59 °F
Humidity 48%
Rainfall 0.00 in
Snow Depth Not available.
UV 8 out of 12
Pollen 8.90 out of 12
Air Quality Not available.
Flu Activity Sporadic
METAR KLAN 281953Z 21006G15KT 10SM FEW055 26/14 A3021 RMK AO2 SLP226 T02610139

More Conditions Fewer Conditions

Pressure 30.20 in
Visibility 10.0 miles
Clouds Few 5500 ft
Heat Index 81 °F
Dew Point 59 °F
Humidity 48%
Rainfall 0.00 in
Snow Depth Not available.
UV 8 out of 12
Pollen 8.90 out of 12
Air Quality Not available.
Flu Activity Sporadic
METAR KLAN 281953Z 21006G15KT 10SM FEW055 26/14 A3021 RMK AO2 SLP226 T02610139

More Conditions Fewer Conditions

10-Day Weather Forecast

Almanac

Astronomy

May. 28, 2015 Rise Set
Actual Time
Civil Twilight
Nautical Twilight
Astronomical Twilight
Moon
Length of Visible Light
Length of Day
Tomorrow will be .
, % of the Moon is Illuminated

Today's Extremes

State Highs State Lows

Community

WunderPhotos

Upload Photos

1,825,056 photos uploaded!

WunderBlogs® & News

Nearby

Air Quality

  Air Quality AQ Index Pollutant
Not available.

Snow Depth

Station Depth Elevation

Earthquake Activity

City Distance Mag. Time & Date
Minimum magnitude displayed is 2.5.

Coastal Water Temperatures

Place Temperature

Stations

Nearby Weather Stations

Station Location Temp. Windchill Dew Point Humidity Wind Precip. Elev Updated Type